createdAt,value
2022-12-28T00:01:26.074Z,101708.53
2022-12-28T00:03:53.382Z,101700.81
2022-12-28T00:06:21.928Z,101688.63
2022-12-28T00:08:48.496Z,101692.03
2022-12-28T00:11:28.115Z,101686.00
2022-12-28T00:14:01.077Z,101678.28
2022-12-28T00:16:32.190Z,101676.50
2022-12-28T00:19:01.399Z,101674.69
2022-12-28T00:21:28.826Z,101660.00
2022-12-28T00:23:57.975Z,101656.41
2022-12-28T00:26:26.202Z,101637.31
2022-12-28T00:28:56.809Z,101634.72
2022-12-28T00:31:26.741Z,101634.72
2022-12-28T00:33:53.985Z,101627.69
2022-12-28T00:36:20.514Z,101618.09
2022-12-28T00:38:47.004Z,101621.53
2022-12-28T00:41:13.624Z,101611.91
2022-12-28T00:43:40.351Z,101599.53
2022-12-28T00:46:07.044Z,101599.53
2022-12-28T00:48:33.704Z,101594.19
2022-12-28T00:51:06.299Z,101587.19
2022-12-28T00:53:33.121Z,101586.09
2022-12-28T00:56:12.542Z,101578.25
2022-12-28T00:58:39.308Z,101571.25
2022-12-28T01:01:11.323Z,101563.25
2022-12-28T01:03:37.934Z,101563.16
2022-12-28T01:06:09.853Z,101557.78
2022-12-28T01:08:40.753Z,101550.75
2022-12-28T01:11:10.107Z,101545.28
2022-12-28T01:13:37.837Z,101534.66
2022-12-28T01:16:15.347Z,101526.56
2022-12-28T01:18:43.271Z,101509.09
2022-12-28T01:21:17.030Z,101510.63
2022-12-28T01:23:45.287Z,101514.59
2022-12-28T01:26:12.918Z,101514.50
2022-12-28T01:28:39.820Z,101513.38
2022-12-28T01:31:14.642Z,101512.13
2022-12-28T01:33:42.517Z,101509.25
2022-12-28T01:36:09.838Z,101507.44
2022-12-28T01:38:36.534Z,101503.75
2022-12-28T01:41:07.364Z,101500.16
2022-12-28T01:43:39.950Z,101498.38
2022-12-28T01:46:08.444Z,101494.81
2022-12-28T01:48:36.413Z,101500.03
2022-12-28T01:51:04.051Z,101482.56
2022-12-28T01:53:30.962Z,101477.34
2022-12-28T01:55:57.821Z,101474.56
2022-12-28T01:58:28.982Z,101459.72
2022-12-28T02:00:55.622Z,101452.41
2022-12-28T02:03:26.468Z,101456.69
2022-12-28T02:05:56.558Z,101454.75
2022-12-28T02:08:37.820Z,101446.78
2022-12-28T02:11:05.676Z,101441.56
2022-12-28T02:13:33.504Z,101421.59
2022-12-28T02:16:00.040Z,101425.88
2022-12-28T02:18:27.740Z,101427.53
2022-12-28T02:21:09.847Z,101418.84
2022-12-28T02:23:36.285Z,101414.44
2022-12-28T02:26:30.162Z,101412.66
2022-12-28T02:29:14.566Z,101404.81
2022-12-28T02:32:02.177Z,101400.41
2022-12-28T02:34:40.650Z,101394.25
2022-12-28T02:37:16.825Z,101396.69
2022-12-28T02:39:49.798Z,101381.84
2022-12-28T02:42:17.900Z,101380.72
2022-12-28T02:45:03.489Z,101384.84
2022-12-28T02:47:48.523Z,101384.72
2022-12-28T02:50:16.872Z,101370.53
2022-12-28T02:53:08.097Z,101377.25
2022-12-28T02:56:08.174Z,101380.41
2022-12-28T02:59:02.869Z,101368.03
2022-12-28T03:02:17.465Z,101346.84
2022-12-28T03:04:56.624Z,101364.00
2022-12-28T03:07:53.815Z,101369.25
2022-12-28T03:10:33.519Z,101371.56
2022-12-28T03:13:41.706Z,101347.75
2022-12-28T03:16:13.613Z,101352.97
2022-12-28T03:19:02.633Z,101353.69
2022-12-28T03:21:49.585Z,101338.66
2022-12-28T03:24:35.515Z,101342.09
2022-12-28T03:27:26.360Z,101351.56
2022-12-28T03:30:22.642Z,101357.19
2022-12-28T03:32:50.497Z,101330.22
2022-12-28T03:35:19.706Z,101341.50
2022-12-28T03:38:05.042Z,101351.69
2022-12-28T03:40:48.003Z,101344.50
2022-12-28T03:43:43.800Z,101332.22
2022-12-28T03:46:22.577Z,101350.41
2022-12-28T03:48:50.615Z,101331.28
2022-12-28T03:51:22.016Z,101331.94
2022-12-28T03:53:48.734Z,101319.69
2022-12-28T03:56:24.429Z,101323.81
2022-12-28T03:58:53.100Z,101317.59
2022-12-28T04:01:20.589Z,101321.72
2022-12-28T04:03:47.268Z,101319.91
2022-12-28T04:06:16.598Z,101313.72
2022-12-28T04:08:45.040Z,101313.59
2022-12-28T04:11:12.314Z,101310.97
2022-12-28T04:13:39.088Z,101317.84
2022-12-28T04:16:09.658Z,101308.88
2022-12-28T04:18:36.226Z,101308.72
2022-12-28T04:21:02.885Z,101305.16
2022-12-28T04:23:31.032Z,101299.59
2022-12-28T04:26:01.184Z,101301.09
2022-12-28T04:28:28.830Z,101295.69
2022-12-28T04:30:56.250Z,101293.94
2022-12-28T04:33:23.109Z,101284.13
2022-12-28T04:35:52.387Z,101283.13
2022-12-28T04:38:19.560Z,101289.88
2022-12-28T04:40:46.103Z,101285.16
2022-12-28T04:43:12.995Z,101289.66
2022-12-28T04:45:39.588Z,101277.25
2022-12-28T04:48:06.138Z,101278.88
2022-12-28T04:50:32.736Z,101270.22
2022-12-28T04:53:00.160Z,101268.41
2022-12-28T04:55:32.210Z,101267.28
2022-12-28T04:58:00.547Z,101254.84
2022-12-28T05:00:27.284Z,101250.31
2022-12-28T05:02:53.898Z,101243.28
2022-12-28T05:05:20.554Z,101249.84
2022-12-28T05:07:47.171Z,101243.63
2022-12-28T05:10:13.739Z,101246.91
2022-12-28T05:12:40.296Z,101245.13
2022-12-28T05:15:07.759Z,101238.91
2022-12-28T05:17:34.428Z,101247.44
2022-12-28T05:20:00.984Z,101238.47
2022-12-28T05:22:27.558Z,101238.28
2022-12-28T05:24:54.169Z,101254.69
2022-12-28T05:27:20.924Z,101253.72
2022-12-28T05:29:47.427Z,101242.94
2022-12-28T05:32:14.056Z,101241.94
2022-12-28T05:34:40.544Z,101246.06
2022-12-28T05:37:07.011Z,101244.09
2022-12-28T05:39:33.556Z,101241.34
2022-12-28T05:42:00.876Z,101229.06
2022-12-28T05:44:27.556Z,101230.69
2022-12-28T05:46:54.199Z,101236.75
2022-12-28T05:49:21.041Z,101237.13
2022-12-28T05:51:52.900Z,101232.53
2022-12-28T05:54:20.252Z,101234.34
2022-12-28T05:56:51.095Z,101227.00
2022-12-28T05:59:17.780Z,101233.88
2022-12-28T06:01:45.029Z,101231.09
2022-12-28T06:04:17.574Z,101235.50
2022-12-28T06:06:45.252Z,101233.72
2022-12-28T06:09:12.070Z,101238.78
2022-12-28T06:11:38.682Z,101233.56
2022-12-28T06:14:06.032Z,101228.47
2022-12-28T06:16:38.067Z,101232.44
2022-12-28T06:19:10.127Z,101226.03
2022-12-28T06:21:39.053Z,101225.09
2022-12-28T06:24:06.706Z,101217.22
2022-12-28T06:26:35.372Z,101223.78
2022-12-28T06:29:02.187Z,101220.19
2022-12-28T06:31:35.547Z,101220.69
2022-12-28T06:34:03.751Z,101229.22
2022-12-28T06:36:37.305Z,101229.75
2022-12-28T06:39:06.818Z,101228.28
2022-12-28T06:41:33.986Z,101221.22
2022-12-28T06:44:00.792Z,101212.41
2022-12-28T06:46:29.634Z,101210.25
2022-12-28T06:48:57.337Z,101208.31
2022-12-28T06:51:26.439Z,101198.50
2022-12-28T06:53:54.173Z,101205.38
2022-12-28T06:56:20.675Z,101213.88
2022-12-28T06:58:49.009Z,101205.06
2022-12-28T07:01:18.212Z,101198.66
2022-12-28T07:03:45.932Z,101199.34
2022-12-28T07:06:13.875Z,101198.53
2022-12-28T07:08:40.559Z,101187.88
2022-12-28T07:11:10.200Z,101184.28
2022-12-28T07:13:36.855Z,101182.31
2022-12-28T07:16:09.925Z,101195.25
2022-12-28T07:18:36.473Z,101191.66
2022-12-28T07:21:12.981Z,101193.47
2022-12-28T07:23:39.586Z,101211.47
2022-12-28T07:26:11.866Z,101205.91
2022-12-28T07:28:39.778Z,101202.16
2022-12-28T07:31:12.258Z,101201.03
2022-12-28T07:33:39.107Z,101197.59
2022-12-28T07:36:08.205Z,101194.81
2022-12-28T07:38:35.160Z,101218.22
2022-12-28T07:41:03.419Z,101199.72
2022-12-28T07:43:30.497Z,101201.19
2022-12-28T07:46:05.243Z,101203.97
2022-12-28T07:48:33.254Z,101200.38
2022-12-28T07:51:10.831Z,101204.66
2022-12-28T07:53:38.581Z,101206.44
2022-12-28T07:56:05.499Z,101206.28
2022-12-28T07:58:32.278Z,101203.34
2022-12-28T08:01:05.020Z,101204.16
2022-12-28T08:03:33.528Z,101199.56
2022-12-28T08:06:15.099Z,101194.00
2022-12-28T08:08:44.133Z,101203.53
2022-12-28T08:11:13.690Z,101197.78
2022-12-28T08:13:42.474Z,101201.06
2022-12-28T08:16:11.961Z,101200.09
2022-12-28T08:18:40.347Z,101203.34
2022-12-28T08:21:14.815Z,101197.97
2022-12-28T08:23:41.679Z,101194.19
2022-12-28T08:26:11.007Z,101179.25
2022-12-28T08:28:38.962Z,101195.84
2022-12-28T08:31:11.769Z,101201.09
2022-12-28T08:33:38.641Z,101200.25
2022-12-28T08:36:06.422Z,101206.34
2022-12-28T08:38:34.159Z,101195.00
2022-12-28T08:41:02.720Z,101191.41
2022-12-28T08:43:29.937Z,101200.25
2022-12-28T08:46:02.346Z,101190.75
2022-12-28T08:48:29.480Z,101200.25
2022-12-28T08:51:01.832Z,101202.22
2022-12-28T08:53:28.391Z,101204.69
2022-12-28T08:55:54.863Z,101201.41
2022-12-28T08:58:21.326Z,101201.22
2022-12-28T09:00:47.924Z,101188.78
2022-12-28T09:03:14.502Z,101191.09
2022-12-28T09:05:42.224Z,101188.47
2022-12-28T09:08:08.767Z,101189.59
2022-12-28T09:10:35.878Z,101180.75
2022-12-28T09:13:02.468Z,101189.91
2022-12-28T09:15:29.170Z,101190.41
2022-12-28T09:17:55.672Z,101194.66
2022-12-28T09:20:22.198Z,101192.91
2022-12-28T09:22:48.808Z,101188.47
2022-12-28T09:25:15.412Z,101195.34
2022-12-28T09:27:42.019Z,101190.91
2022-12-28T09:30:09.227Z,101195.34
2022-12-28T09:32:35.732Z,101181.41
2022-12-28T09:35:02.285Z,101183.03
2022-12-28T09:37:28.761Z,101184.66
2022-12-28T09:40:01.011Z,101190.09
2022-12-28T09:42:30.306Z,101187.47
2022-12-28T09:45:02.759Z,101197.16
2022-12-28T09:47:47.361Z,101191.72
2022-12-28T09:50:16.959Z,101189.91
2022-12-28T09:52:57.792Z,101188.13
2022-12-28T09:55:25.108Z,101185.50
2022-12-28T09:57:57.738Z,101192.41
2022-12-28T10:00:46.061Z,101183.72
2022-12-28T10:03:22.058Z,101177.78
2022-12-28T10:05:50.623Z,101177.78
2022-12-28T10:08:20.728Z,101182.03
2022-12-28T10:10:49.127Z,101178.78
2022-12-28T10:13:53.539Z,101176.31
2022-12-28T10:16:20.570Z,101175.34
2022-12-28T10:18:49.220Z,101175.47
2022-12-28T10:21:19.915Z,101172.03
2022-12-28T10:24:12.536Z,101173.69
2022-12-28T10:26:36.590Z,101160.56
2022-12-28T10:29:03.156Z,101164.16
2022-12-28T10:31:40.684Z,101166.66
2022-12-28T10:34:22.794Z,101165.00
2022-12-28T10:36:50.944Z,101152.69
2022-12-28T10:39:24.334Z,101159.59
2022-12-28T10:41:51.812Z,101164.66
2022-12-28T10:44:39.255Z,101154.03
2022-12-28T10:47:17.872Z,101153.03
2022-12-28T10:52:38.380Z,101153.66
2022-12-28T10:55:29.285Z,101164.00
2022-12-28T11:00:48.542Z,101145.47
2022-12-28T11:03:21.297Z,101160.72
2022-12-28T11:03:23.811Z,101146.97
2022-12-28T11:05:57.080Z,101134.69
2022-12-28T11:08:24.187Z,101129.44
2022-12-28T11:10:57.927Z,101134.50
2022-12-28T11:13:24.625Z,101115.97
2022-12-28T11:15:51.363Z,101124.47
2022-12-28T11:18:20.137Z,101117.28
2022-12-28T11:20:52.400Z,101103.16
2022-12-28T11:23:25.532Z,101112.50
2022-12-28T11:25:52.373Z,101095.94
2022-12-28T11:28:20.226Z,101103.63
2022-12-28T11:30:51.808Z,101088.88
2022-12-28T11:33:47.044Z,101095.94
2022-12-28T11:36:16.568Z,101094.81
2022-12-28T11:38:45.898Z,101087.06
2022-12-28T11:41:39.336Z,101084.44
2022-12-28T11:44:06.603Z,101073.13
2022-12-28T11:46:39.149Z,101087.88
2022-12-28T11:49:32.466Z,101080.00
2022-12-28T11:52:17.106Z,101079.06
2022-12-28T11:54:58.546Z,101072.94
2022-12-28T11:57:42.761Z,101071.31
2022-12-28T12:00:23.850Z,101073.81
2022-12-28T12:02:51.724Z,101072.00
2022-12-28T12:05:36.819Z,101062.13
2022-12-28T12:08:23.309Z,101061.31
2022-12-28T12:11:18.609Z,101062.31
2022-12-28T12:13:49.466Z,101059.50
2022-12-28T12:16:22.096Z,101048.00
2022-12-28T12:18:57.358Z,101057.69
2022-12-28T12:21:36.340Z,101051.47
2022-12-28T12:24:29.321Z,101051.47
2022-12-28T12:26:58.927Z,101061.13
2022-12-28T12:29:38.343Z,101051.47
2022-12-28T12:32:23.474Z,101039.97
2022-12-28T12:35:17.802Z,101037.16
2022-12-28T12:38:07.379Z,101028.47
2022-12-28T12:40:55.427Z,101027.31
2022-12-28T12:43:44.044Z,101018.44
2022-12-28T12:46:19.467Z,101014.81
2022-12-28T12:49:19.307Z,101003.69
2022-12-28T12:51:49.930Z,101008.28
2022-12-28T12:54:44.160Z,100994.19
2022-12-28T12:57:16.805Z,100993.19
2022-12-28T13:00:05.094Z,100987.13
2022-12-28T13:03:02.704Z,100988.09
2022-12-28T13:05:30.627Z,100980.41
2022-12-28T13:07:58.967Z,100970.91
2022-12-28T13:10:33.945Z,100974.50
2022-12-28T13:13:02.733Z,100962.22
2022-12-28T13:15:30.552Z,100955.16
2022-12-28T13:21:20.393Z,100938.56
2022-12-28T13:23:47.044Z,100934.13
2022-12-28T13:26:15.547Z,100927.06
2022-12-28T13:28:59.462Z,100923.63
2022-12-28T13:31:37.715Z,100918.38
2022-12-28T13:34:13.368Z,100912.13
2022-12-28T13:36:56.655Z,100901.63
2022-12-28T13:39:24.957Z,100903.44
2022-12-28T13:41:54.371Z,100893.75
2022-12-28T13:44:32.754Z,100884.88
2022-12-28T13:47:20.331Z,100877.66
2022-12-28T13:50:02.905Z,100874.84
2022-12-28T13:52:44.238Z,100872.06
2022-12-28T13:55:19.543Z,100867.78
2022-12-28T13:57:57.322Z,100848.59
2022-12-28T14:00:25.947Z,100826.78
2022-12-28T14:02:55.572Z,100836.94
2022-12-28T14:05:26.115Z,100834.13
2022-12-28T14:07:54.400Z,100835.59
2022-12-28T14:10:22.075Z,100822.31
2022-12-28T14:12:50.675Z,100820.78
2022-12-28T14:15:18.459Z,100819.63
2022-12-28T14:17:47.595Z,100817.00
2022-12-28T14:20:14.365Z,100813.34
2022-12-28T14:22:41.669Z,100805.47
2022-12-28T14:25:11.689Z,100788.91
2022-12-28T14:27:44.644Z,100789.72
2022-12-28T14:30:27.940Z,100781.66
2022-12-28T14:32:55.785Z,100775.59
2022-12-28T14:35:26.131Z,100771.16
2022-12-28T14:37:55.729Z,100760.03
2022-12-28T14:40:32.332Z,100764.28
2022-12-28T14:43:08.167Z,100758.41
2022-12-28T14:46:06.677Z,100766.28
2022-12-28T14:48:40.577Z,100763.00
2022-12-28T14:51:17.509Z,100753.50
2022-12-28T14:53:44.977Z,100741.19
2022-12-28T14:56:17.690Z,100741.34
2022-12-28T14:58:55.474Z,100730.22
2022-12-28T15:01:24.758Z,100737.44
2022-12-28T15:03:57.114Z,100731.56
2022-12-28T15:06:27.775Z,100725.66
2022-12-28T15:08:56.337Z,100720.41
2022-12-28T15:11:24.827Z,100726.66
2022-12-28T15:13:51.395Z,100716.34
2022-12-28T15:16:20.842Z,100708.47
2022-12-28T15:18:47.489Z,100704.03
2022-12-28T15:21:17.502Z,100701.22
2022-12-28T15:23:47.998Z,100694.34
2022-12-28T15:26:14.855Z,100697.78
2022-12-28T15:28:42.042Z,100690.09
2022-12-28T15:31:13.988Z,100697.13
2022-12-28T15:33:40.660Z,100694.88
2022-12-28T15:36:17.235Z,100684.38
2022-12-28T15:38:46.120Z,100678.13
2022-12-28T15:41:31.160Z,100670.59
2022-12-28T15:43:57.694Z,100670.59
2022-12-28T15:46:24.332Z,100658.50
2022-12-28T15:48:50.872Z,100654.84
2022-12-28T15:51:17.381Z,100647.97
2022-12-28T15:53:43.960Z,100644.56
2022-12-28T15:56:22.768Z,100635.03
2022-12-28T15:58:49.666Z,100636.03
2022-12-28T16:01:16.424Z,100630.97
2022-12-28T16:03:43.166Z,100638.03
2022-12-28T16:06:09.721Z,100631.94
2022-12-28T16:08:36.342Z,100629.69
2022-12-28T16:11:17.516Z,100629.69
2022-12-28T16:13:49.779Z,100627.22
2022-12-28T16:16:16.371Z,100616.94
2022-12-28T16:18:42.890Z,100617.91
2022-12-28T16:21:11.149Z,100610.22
2022-12-28T16:23:43.144Z,100612.03
2022-12-28T16:26:11.524Z,100594.00
2022-12-28T16:28:37.988Z,100596.63
2022-12-28T16:31:05.341Z,100593.34
2022-12-28T16:33:32.331Z,100589.91
2022-12-28T16:36:00.067Z,100586.66
2022-12-28T16:38:28.665Z,100592.91
2022-12-28T16:40:57.105Z,100576.31
2022-12-28T16:43:24.026Z,100568.81
2022-12-28T16:45:51.137Z,100565.34
2022-12-28T16:48:17.738Z,100556.88
2022-12-28T16:50:44.290Z,100552.63
2022-12-28T16:53:10.943Z,100547.38
2022-12-28T16:55:42.326Z,100542.13
2022-12-28T16:58:10.089Z,100545.72
2022-12-28T17:00:36.750Z,100532.81
2022-12-28T17:03:03.465Z,100527.56
2022-12-28T17:05:34.682Z,100525.09
2022-12-28T17:08:03.023Z,100515.59
2022-12-28T17:10:30.256Z,100504.28
2022-12-28T17:12:56.956Z,100500.06
2022-12-28T17:15:24.058Z,100502.66
2022-12-28T17:17:50.611Z,100500.06
2022-12-28T17:20:17.725Z,100499.25
2022-12-28T17:22:45.122Z,100485.31
2022-12-28T17:25:11.671Z,100480.06
2022-12-28T17:27:38.307Z,100469.56
2022-12-28T17:30:05.411Z,100474.81
2022-12-28T17:32:31.984Z,100472.34
2022-12-28T17:34:58.603Z,100460.88
2022-12-28T17:37:25.272Z,100458.25
2022-12-28T17:39:51.871Z,100455.63
2022-12-28T17:42:18.375Z,100453.84
2022-12-28T17:44:46.074Z,100443.34
2022-12-28T17:47:12.617Z,100455.44
2022-12-28T17:49:39.097Z,100444.97
2022-12-28T17:52:05.899Z,100436.09
2022-12-28T17:54:32.684Z,100425.59
2022-12-28T17:56:59.626Z,100428.22
2022-12-28T17:59:26.849Z,100424.78
2022-12-28T18:01:53.786Z,100417.72
2022-12-28T18:04:20.501Z,100417.72
2022-12-28T18:06:47.021Z,100403.78
2022-12-28T18:09:13.617Z,100398.53
2022-12-28T18:11:40.095Z,100400.34
2022-12-28T18:14:07.741Z,100383.00
2022-12-28T18:16:34.581Z,100382.81
2022-12-28T18:19:01.635Z,100393.28
2022-12-28T18:21:28.551Z,100382.81
2022-12-28T18:23:55.236Z,100382.00
2022-12-28T18:26:26.261Z,100386.22
2022-12-28T18:28:53.703Z,100378.56
2022-12-28T18:31:20.628Z,100377.56
2022-12-28T18:33:47.443Z,100371.50
2022-12-28T18:36:17.699Z,100372.31
2022-12-28T18:38:45.727Z,100360.00
2022-12-28T18:41:15.465Z,100364.44
2022-12-28T18:43:43.011Z,100359.00
2022-12-28T18:46:10.587Z,100359.81
2022-12-28T18:48:39.465Z,100358.03
2022-12-28T18:51:12.567Z,100361.44
2022-12-28T18:53:39.797Z,100355.19
2022-12-28T18:56:09.078Z,100345.50
2022-12-28T18:58:38.630Z,100352.38
2022-12-28T19:01:32.909Z,100347.97
2022-12-28T19:04:01.069Z,100347.78
2022-12-28T19:06:27.941Z,100355.66
2022-12-28T19:08:59.117Z,100350.19
2022-12-28T19:11:26.279Z,100348.22
2022-12-28T19:13:52.782Z,100348.22
2022-12-28T19:16:28.547Z,100337.34
2022-12-28T19:18:57.175Z,100345.22
2022-12-28T19:21:23.731Z,100351.94
2022-12-28T19:23:52.083Z,100340.44
2022-12-28T19:26:19.350Z,100340.44
2022-12-28T19:28:45.987Z,100334.19
2022-12-28T19:31:12.727Z,100338.28
2022-12-28T19:33:39.307Z,100331.66
2022-12-28T19:36:06.101Z,100328.03
2022-12-28T19:38:33.067Z,100318.34
2022-12-28T19:41:05.310Z,100333.09
2022-12-28T19:43:31.960Z,100330.28
2022-12-28T19:46:07.515Z,100326.47
2022-12-28T19:48:34.413Z,100320.22
2022-12-28T19:51:01.476Z,100310.31
2022-12-28T19:53:28.840Z,100314.59
2022-12-28T19:56:02.586Z,100322.09
2022-12-28T19:58:29.256Z,100320.28
2022-12-28T20:01:02.860Z,100316.66
2022-12-28T20:03:29.413Z,100304.16
2022-12-28T20:05:55.947Z,100315.28
2022-12-28T20:08:22.445Z,100300.16
2022-12-28T20:10:56.623Z,100314.09
2022-12-28T20:13:23.168Z,100310.69
2022-12-28T20:15:49.769Z,100307.69
2022-12-28T20:18:16.298Z,100318.66
2022-12-28T20:21:17.241Z,100312.59
2022-12-28T20:23:30.911Z,100309.97
2022-12-28T20:25:57.609Z,100315.66
2022-12-28T20:28:24.555Z,100310.03
2022-12-28T20:30:51.504Z,100311.63
2022-12-28T20:33:19.687Z,100315.91
2022-12-28T20:36:00.516Z,100304.41
2022-12-28T20:38:27.581Z,100292.88
2022-12-28T20:41:07.565Z,100280.56
2022-12-28T20:43:34.975Z,100296.75
2022-12-28T20:46:02.357Z,100298.19
2022-12-28T20:48:29.787Z,100290.31
2022-12-28T20:50:58.836Z,100296.38
2022-12-28T20:53:26.276Z,100293.53
2022-12-28T20:55:52.758Z,100283.03
2022-12-28T20:58:20.502Z,100293.16
2022-12-28T21:00:47.429Z,100285.72
2022-12-28T21:03:14.226Z,100287.16
2022-12-28T21:05:40.882Z,100281.31
2022-12-28T21:08:07.511Z,100272.63
2022-12-28T21:10:34.083Z,100267.19
2022-12-28T21:13:00.632Z,100272.03
2022-12-28T21:15:27.235Z,100278.75
2022-12-28T21:17:53.706Z,100262.97
2022-12-28T21:20:20.255Z,100270.66
2022-12-28T21:22:46.698Z,100263.41
2022-12-28T21:25:13.249Z,100262.22
2022-12-28T21:27:39.743Z,100256.75
2022-12-28T21:30:07.115Z,100252.31
2022-12-28T21:32:33.698Z,100240.78
2022-12-28T21:35:00.322Z,100239.00
2022-12-28T21:37:36.091Z,100244.03
2022-12-28T21:40:06.560Z,100222.44
2022-12-28T21:42:33.857Z,100224.88
2022-12-28T21:45:00.450Z,100224.06
2022-12-28T21:47:27.495Z,100228.31
2022-12-28T21:49:54.405Z,100218.59
2022-12-28T21:52:21.107Z,100223.28
2022-12-28T21:54:47.868Z,100224.28
2022-12-28T21:57:14.682Z,100214.59
2022-12-28T21:59:41.173Z,100219.63
2022-12-28T22:02:38.160Z,100222.09
2022-12-28T22:05:23.757Z,100227.13
2022-12-28T22:08:13.293Z,100230.78
2022-12-28T22:11:15.480Z,100226.72
2022-12-28T22:13:43.432Z,100226.09
2022-12-28T22:16:10.034Z,100227.72
2022-12-28T22:19:00.870Z,100218.03
2022-12-28T22:21:23.128Z,100222.47
2022-12-28T22:23:49.742Z,100206.09
2022-12-28T22:26:16.439Z,100201.66
2022-12-28T22:28:42.969Z,100198.00
2022-12-28T22:31:09.497Z,100193.97
2022-12-28T22:33:36.192Z,100201.84
2022-12-28T22:36:19.071Z,100199.03
2022-12-28T22:38:46.278Z,100200.84
2022-12-28T22:41:13.050Z,100204.09
2022-12-28T22:43:39.719Z,100196.81
2022-12-28T22:46:10.806Z,100195.81
2022-12-28T22:48:37.967Z,100190.34
2022-12-28T22:51:13.336Z,100199.25
2022-12-28T22:53:40.413Z,100181.47
2022-12-28T22:56:12.335Z,100186.31
2022-12-28T22:58:38.921Z,100175.81
2022-12-28T23:01:14.028Z,100178.06
2022-12-28T23:03:43.062Z,100176.06
2022-12-28T23:06:11.581Z,100166.34
2022-12-28T23:08:38.551Z,100172.19
2022-12-28T23:11:30.452Z,100172.41
2022-12-28T23:14:20.471Z,100169.56
2022-12-28T23:16:47.871Z,100170.38
2022-12-28T23:19:33.529Z,100160.69
2022-12-28T23:22:19.307Z,100147.31
2022-12-28T23:25:04.619Z,100148.13
2022-12-28T23:27:36.493Z,100154.19
2022-12-28T23:30:08.988Z,100150.59
2022-12-28T23:32:35.548Z,100136.03
2022-12-28T23:35:02.409Z,100145.53
2022-12-28T23:37:28.988Z,100140.91
2022-12-28T23:39:55.578Z,100141.28
2022-12-28T23:42:22.244Z,100134.63
2022-12-28T23:44:49.713Z,100138.06
2022-12-28T23:47:17.359Z,100124.91
2022-12-28T23:49:44.005Z,100137.66
2022-12-28T23:52:10.517Z,100128.75
2022-12-28T23:54:37.281Z,100124.28
2022-12-28T23:57:04.225Z,100125.91
2022-12-28T23:59:30.903Z,100105.47
